Terminal Aerodrome Forecast
Issued by NWS

Home | Current Version | Previous Version | Text Only | Print | Product List | Glossary On
Versions: 1 2 3 4 5 6 7 8 9 10 11 12 13 14 15 16 17 18
000
FTUS42 KGSP 171700
TAFHKY
TAF
KHKY 171731Z 1718/1818 06007KT P6SM FEW250
     FM172100 13004KT P6SM FEW250
     FM180000 00000KT P6SM FEW250
     FM180600 00000KT P6SM SCT040 BKN250
     FM180900 00000KT P6SM BKN040=

USA.gov is the U.S. government's official web portal to all federal, state and local government web resources and services.